Aérodrome :
LOGIN :

S'inscrire | Disclaimer

   EN    FR    IT 

 










Légende :    VFR   VFR Marginal   IFR   IFR Intensif   IFR Très Intensif
Visi : 
Plafond : 
>= 8 km
>= 3000ft
5 à 8 km
1000 à 3000 ft
1500m à 5 km
500 à 1000 ft
800 à 1500m
200 à 500 ft
< 800m
< 200 ft
Symboles :   Orages  Brouillard  Fortes neiges  Fortes précipitations  Vent > 20 kt
SIGMETs :   Divers  Orages  Givrage  Turbulence  Onde Orograph.  Cendres Volcan.







- Altitude de l'aérodrome : 2265 ft
- Code IATA : CZL


DABC - Mohamed Boudiaf Int. Constantine

DERNIER METAR :
  • 260300Z VRB02KT 9999 FEW030 SCT200 14/06 Q1011

METARs EXPIRÉS :
  • 260230Z 02002KT 9999 FEW030 SCT200 14/06 Q1011
  • 260200Z 09003KT 340V150 9999 FEW030 SCT200 14/06 Q1012
  • 260130Z 12005KT 090V140 9999 FEW030 SCT200 15/07 Q1011
  • 260100Z 21002KT 9999 FEW030 SCT200 15/06 Q1012

TAF TAF DABC
Valide du 26 à 00h jusqu'au 27 à 00h UTC


252300Z 2600/2624 14006KT CAVOK
BECMG 2609/2612 24010KT FEW030TCU
TEMPO 2613/2621 5000 -TSRA SCT026CB
BECMG 2620/2622 VRB02KT
Pas de NOTAMs connus pour ce terrain.



MET'MAP, la Météo Aéronautique d'un coup d'oeil ! - Copyright ORBIFLY Décembre 2007 - Disclaimer

ORBIFLY MET'MAP TEAM :

Programmation & Développement : Alexandra Zaïnal
Conception & Développement : Baudouin d'Aumeries
Co-Programmation & Développement : Marc-Olivier Méhu
Soutien technique & logistique : Manuel Goepfert

Contact : metmap@orbifly.com




SOURCES & CREDITS :

   NOAA